East Greenwich, New York
Current Conditions -  °F | °C
As of 2:53 PM on Sunday 25 Jan 2015 (Local Time) from KGFL Reporting Station
Clear Clear  
Wind Chill: 13°   Ceiling: Unl
Heat Index: 25°   Visibility: 10mi
Dew Point:   Wind: 14mph
Humidity: 39%   Direction: 360°N
Pressure: 29.8"   Gusts: NA
Location:  43.2004°N, 73.3317°W
Report Text: KGFL 251953Z AUTO 36012KT 10SM CLR M04/M16 A2980 RMK AO2 SLP102 T10391161
Loading
Personal Weather Stations






























Interactive Weather Map New forecast layout! Learn more

10-Day Weather Forecast

Advertisements
Track Severe Weather on mobile